createdAt,value
2022-09-23T00:02:23.302Z,43.00
2022-09-23T00:04:50.009Z,43.10
2022-09-23T00:07:16.928Z,43.70
2022-09-23T00:09:43.546Z,43.00
2022-09-23T00:12:10.276Z,43.20
2022-09-23T00:14:38.788Z,43.10
2022-09-23T00:17:05.566Z,43.70
2022-09-23T00:19:32.228Z,43.10
2022-09-23T00:21:58.833Z,43.10
2022-09-23T00:24:25.515Z,43.20
2022-09-23T00:26:52.465Z,43.10
2022-09-23T00:29:19.332Z,43.20
2022-09-23T00:31:46.155Z,43.20
2022-09-23T00:34:12.772Z,43.20
2022-09-23T00:36:40.298Z,43.20
2022-09-23T00:39:07.423Z,43.20
2022-09-23T00:41:35.191Z,43.20
2022-09-23T00:44:02.401Z,43.20
2022-09-23T00:46:39.953Z,43.30
2022-09-23T00:49:11.056Z,43.10
2022-09-23T00:51:40.079Z,43.20
2022-09-23T00:54:06.893Z,43.20
2022-09-23T00:56:33.559Z,43.20
2022-09-23T00:59:00.675Z,43.20
2022-09-23T01:01:27.377Z,43.30
2022-09-23T01:03:54.537Z,43.30
2022-09-23T01:06:21.105Z,43.30
2022-09-23T01:08:47.672Z,43.30
2022-09-23T01:11:23.129Z,43.30
2022-09-23T01:14:17.899Z,43.30
2022-09-23T01:16:51.810Z,43.30
2022-09-23T01:19:30.468Z,43.30
2022-09-23T01:22:25.321Z,43.30
2022-09-23T01:25:20.474Z,43.30
2022-09-23T01:28:24.568Z,43.20
2022-09-23T01:30:51.199Z,43.20
2022-09-23T01:33:47.083Z,43.30
2022-09-23T01:36:24.178Z,43.20
2022-09-23T01:39:12.501Z,43.30
2022-09-23T01:41:47.918Z,43.30
2022-09-23T01:44:18.217Z,43.40
2022-09-23T01:47:10.762Z,43.40
2022-09-23T01:49:56.187Z,43.40
2022-09-23T01:52:34.710Z,43.40
2022-09-23T01:55:33.607Z,43.40
2022-09-23T01:58:06.556Z,43.40
2022-09-23T02:00:34.967Z,43.40
2022-09-23T02:03:07.318Z,43.40
2022-09-23T02:05:37.490Z,43.50
2022-09-23T02:08:11.415Z,43.40
2022-09-23T02:10:44.563Z,43.40
2022-09-23T02:13:24.551Z,43.40
2022-09-23T02:15:52.965Z,43.40
2022-09-23T02:18:27.007Z,43.40
2022-09-23T02:20:58.847Z,43.50
2022-09-23T02:23:34.191Z,43.50
2022-09-23T02:26:23.025Z,43.50
2022-09-23T02:29:14.267Z,43.40
2022-09-23T02:31:54.844Z,43.40
2022-09-23T02:34:27.652Z,43.50
2022-09-23T02:37:31.288Z,43.50
2022-09-23T02:40:15.696Z,43.50
2022-09-23T02:42:47.946Z,43.50
2022-09-23T02:45:14.601Z,43.50
2022-09-23T02:47:43.983Z,43.50
2022-09-23T02:50:10.576Z,43.60
2022-09-23T02:52:38.678Z,44.20
2022-09-23T02:55:06.665Z,43.60
2022-09-23T02:57:33.498Z,43.70
2022-09-23T03:00:00.156Z,43.50
2022-09-23T03:02:52.537Z,43.60
2022-09-23T03:05:24.045Z,43.50
2022-09-23T03:08:19.782Z,43.50
2022-09-23T03:11:04.323Z,43.60
2022-09-23T03:13:53.547Z,43.60
2022-09-23T03:16:34.537Z,43.60
2022-09-23T03:19:24.833Z,43.60
2022-09-23T03:21:57.722Z,43.50
2022-09-23T03:24:24.407Z,43.60
2022-09-23T03:26:51.696Z,43.60
2022-09-23T03:29:18.270Z,43.60
2022-09-23T03:31:44.931Z,43.60
2022-09-23T03:34:23.071Z,43.60
2022-09-23T03:37:01.697Z,43.70
2022-09-23T03:39:40.090Z,43.70
2022-09-23T03:42:31.757Z,43.70
2022-09-23T03:44:58.352Z,43.60
2022-09-23T03:47:26.068Z,43.60
2022-09-23T03:49:52.891Z,43.70
2022-09-23T03:52:23.066Z,43.60
2022-09-23T03:54:50.190Z,43.70
2022-09-23T03:57:16.861Z,43.70
2022-09-23T03:59:43.571Z,43.70
2022-09-23T04:02:10.266Z,43.70
2022-09-23T04:04:37.132Z,43.70
2022-09-23T04:07:03.720Z,43.60
2022-09-23T04:09:30.594Z,43.70
2022-09-23T04:11:57.277Z,43.60
2022-09-23T04:14:24.111Z,43.70
2022-09-23T04:16:50.803Z,43.80
2022-09-23T04:19:17.510Z,43.70
2022-09-23T04:21:44.342Z,43.70
2022-09-23T04:24:11.182Z,43.70
2022-09-23T04:26:38.213Z,43.70
2022-09-23T04:29:04.969Z,43.70
2022-09-23T04:31:32.476Z,43.70
2022-09-23T04:33:59.228Z,43.70
2022-09-23T04:36:26.062Z,43.70
2022-09-23T04:38:52.694Z,43.70
2022-09-23T04:41:19.342Z,43.70
2022-09-23T04:43:45.987Z,43.70
2022-09-23T04:46:13.973Z,43.70
2022-09-23T04:48:41.527Z,43.80
2022-09-23T04:51:16.628Z,43.70
2022-09-23T04:53:43.991Z,43.70
2022-09-23T04:56:12.403Z,44.00
2022-09-23T04:58:39.217Z,44.30
2022-09-23T05:01:12.416Z,44.20
2022-09-23T05:03:39.134Z,43.60
2022-09-23T05:06:05.916Z,42.30
2022-09-23T05:08:32.565Z,41.00
2022-09-23T05:10:59.834Z,39.20
2022-09-23T05:13:26.488Z,37.60
2022-09-23T05:16:01.147Z,36.20
2022-09-23T05:18:30.715Z,35.30
2022-09-23T05:20:57.302Z,34.30
2022-09-23T05:23:24.093Z,33.20
2022-09-23T05:26:05.815Z,32.20
2022-09-23T05:28:32.818Z,31.40
2022-09-23T05:31:19.381Z,30.40
2022-09-23T05:33:53.963Z,30.00
2022-09-23T05:36:21.384Z,29.00
2022-09-23T05:38:49.730Z,28.40
2022-09-23T05:41:16.556Z,27.80
2022-09-23T05:43:43.260Z,27.20
2022-09-23T05:46:14.766Z,26.80
2022-09-23T05:48:41.834Z,26.60
2022-09-23T05:51:11.092Z,26.40
2022-09-23T05:53:38.027Z,26.30
2022-09-23T05:58:36.462Z,26.00
2022-09-23T06:01:12.218Z,25.80
2022-09-23T06:03:39.029Z,25.60
2022-09-23T06:06:06.432Z,25.30
2022-09-23T06:08:36.045Z,25.60
2022-09-23T06:11:08.777Z,25.20
2022-09-23T06:13:38.113Z,25.40
2022-09-23T06:16:06.167Z,25.60
2022-09-23T06:18:32.849Z,25.80
2022-09-23T06:21:03.431Z,26.00
2022-09-23T06:23:30.345Z,26.30
2022-09-23T06:26:01.207Z,26.50
2022-09-23T06:28:32.421Z,26.80
2022-09-23T06:30:59.845Z,27.10
2022-09-23T06:33:35.931Z,27.40
2022-09-23T06:36:05.880Z,27.80
2022-09-23T06:38:35.538Z,28.20
2022-09-23T06:41:03.363Z,28.50
2022-09-23T06:43:30.281Z,28.90
2022-09-23T06:46:00.249Z,29.20
2022-09-23T06:48:27.259Z,29.60
2022-09-23T06:50:53.861Z,29.90
2022-09-23T06:53:23.664Z,30.30
2022-09-23T06:56:05.576Z,30.70
2022-09-23T06:58:32.666Z,31.10
2022-09-23T07:01:07.110Z,31.60
2022-09-23T07:03:34.152Z,32.00
2022-09-23T07:06:00.745Z,32.00
2022-09-23T07:08:28.358Z,32.60
2022-09-23T07:10:56.017Z,32.50
2022-09-23T07:13:22.618Z,33.00
2022-09-23T07:15:58.374Z,33.10
2022-09-23T07:18:25.762Z,33.10
2022-09-23T07:20:52.958Z,33.30
2022-09-23T07:23:19.766Z,33.50
2022-09-23T07:25:46.799Z,33.70
2022-09-23T07:28:13.591Z,33.60
2022-09-23T07:30:51.248Z,33.00
2022-09-23T07:33:31.541Z,32.20
2022-09-23T07:35:59.042Z,31.50
2022-09-23T07:38:30.070Z,30.70
2022-09-23T07:41:11.078Z,30.00
2022-09-23T07:43:37.818Z,29.70
2022-09-23T07:46:08.158Z,28.90
2022-09-23T07:48:35.864Z,28.40
2022-09-23T07:51:23.491Z,28.00
2022-09-23T07:53:51.019Z,28.70
2022-09-23T07:56:19.262Z,27.60
2022-09-23T07:58:46.642Z,27.40
2022-09-23T08:01:13.658Z,27.40
2022-09-23T08:03:40.356Z,27.50
2022-09-23T08:06:12.055Z,27.60
2022-09-23T08:08:48.901Z,27.60
2022-09-23T08:11:18.226Z,28.00
2022-09-23T08:13:44.868Z,28.20
2022-09-23T08:16:11.576Z,28.40
2022-09-23T08:18:38.278Z,28.70
2022-09-23T08:21:04.933Z,28.90
2022-09-23T08:23:33.503Z,29.20
2022-09-23T08:26:02.205Z,29.50
2022-09-23T08:28:28.821Z,29.80
2022-09-23T08:30:55.526Z,30.00
2022-09-23T08:33:23.565Z,30.30
2022-09-23T08:35:51.044Z,30.70
2022-09-23T08:38:17.652Z,31.10
2022-09-23T08:40:50.350Z,31.30
2022-09-23T08:43:27.465Z,31.70
2022-09-23T08:45:55.034Z,31.90
2022-09-23T08:48:29.558Z,32.40
2022-09-23T08:51:03.993Z,32.70
2022-09-23T08:53:33.522Z,33.10
2022-09-23T08:56:00.782Z,33.40
2022-09-23T08:58:35.199Z,33.70
2022-09-23T09:01:27.033Z,34.00
2022-09-23T09:03:55.362Z,34.10
2022-09-23T09:06:24.514Z,34.70
2022-09-23T09:08:55.242Z,34.80
2022-09-23T09:11:23.401Z,34.80
2022-09-23T09:14:02.153Z,34.50
2022-09-23T09:16:59.856Z,34.10
2022-09-23T09:20:01.959Z,33.60
2022-09-23T09:22:28.615Z,33.30
2022-09-23T09:24:55.714Z,32.90
2022-09-23T09:27:25.530Z,32.60
2022-09-23T09:29:53.522Z,32.40
2022-09-23T09:32:36.195Z,32.20
2022-09-23T09:35:08.795Z,31.90
2022-09-23T09:37:44.531Z,31.40
2022-09-23T09:40:16.882Z,31.30
2022-09-23T09:42:46.696Z,31.00
2022-09-23T09:45:57.481Z,30.70
2022-09-23T09:48:32.317Z,30.60
2022-09-23T09:50:58.910Z,30.30
2022-09-23T09:53:27.137Z,30.20
2022-09-23T09:56:03.747Z,30.00
2022-09-23T09:58:50.766Z,30.00
2022-09-23T10:01:37.675Z,30.00
2022-09-23T10:04:06.086Z,30.20
2022-09-23T10:06:35.864Z,30.00
2022-09-23T10:09:02.537Z,30.20
2022-09-23T10:11:29.731Z,30.40
2022-09-23T10:14:13.022Z,30.70
2022-09-23T10:16:41.358Z,31.00
2022-09-23T10:19:27.924Z,31.30
2022-09-23T10:21:59.707Z,31.60
2022-09-23T10:24:29.764Z,32.00
2022-09-23T10:27:08.873Z,32.30
2022-09-23T10:29:47.843Z,32.60
2022-09-23T10:32:19.408Z,32.80
2022-09-23T10:34:48.664Z,33.20
2022-09-23T10:37:20.596Z,33.60
2022-09-23T10:40:06.999Z,33.90
2022-09-23T10:43:20.874Z,34.20
2022-09-23T10:46:09.182Z,34.20
2022-09-23T10:48:44.671Z,34.70
2022-09-23T10:51:33.580Z,35.10
2022-09-23T10:54:43.767Z,35.20
2022-09-23T10:57:36.647Z,32.40
2022-09-23T11:00:37.830Z,32.40
2022-09-23T11:03:24.374Z,32.60
2022-09-23T11:06:29.571Z,31.90
2022-09-23T11:09:14.632Z,31.70
2022-09-23T11:12:00.009Z,31.30
2022-09-23T11:14:42.269Z,30.70
2022-09-23T11:17:25.850Z,30.00
2022-09-23T11:20:09.577Z,29.80
2022-09-23T11:22:58.679Z,29.40
2022-09-23T11:25:33.571Z,29.10
2022-09-23T11:28:09.141Z,27.90
2022-09-23T11:30:58.381Z,28.10
2022-09-23T11:33:46.856Z,28.10
2022-09-23T11:36:38.280Z,28.30
2022-09-23T11:39:19.890Z,28.00
2022-09-23T11:41:46.516Z,28.30
2022-09-23T11:44:19.944Z,28.30
2022-09-23T11:46:58.291Z,28.50
2022-09-23T11:49:35.331Z,28.80
2022-09-23T11:52:05.199Z,29.00
2022-09-23T11:54:43.406Z,29.30
2022-09-23T11:57:23.047Z,29.50
2022-09-23T12:00:06.200Z,29.90
2022-09-23T12:03:08.716Z,30.00
2022-09-23T12:05:40.116Z,30.40
2022-09-23T12:08:18.070Z,30.80
2022-09-23T12:10:52.490Z,31.10
2022-09-23T12:13:24.325Z,31.50
2022-09-23T12:16:02.400Z,32.00
2022-09-23T12:18:44.495Z,32.20
2022-09-23T12:21:45.751Z,32.50
2022-09-23T12:24:24.986Z,32.80
2022-09-23T12:26:53.873Z,33.10
2022-09-23T12:29:20.543Z,33.40
2022-09-23T12:31:48.119Z,33.70
2022-09-23T12:34:48.731Z,34.00
2022-09-23T12:37:29.137Z,34.00
2022-09-23T12:39:59.582Z,34.10
2022-09-23T12:42:30.760Z,34.70
2022-09-23T12:45:32.535Z,34.90
2022-09-23T12:48:04.736Z,34.70
2022-09-23T12:51:02.458Z,35.10
2022-09-23T12:53:35.117Z,34.60
2022-09-23T12:56:14.109Z,35.30
2022-09-23T12:58:43.806Z,35.80
2022-09-23T13:01:21.410Z,35.90
2022-09-23T13:04:08.916Z,36.10
2022-09-23T13:07:05.030Z,36.40
2022-09-23T13:09:33.161Z,36.20
2022-09-23T13:12:01.437Z,36.70
2022-09-23T13:14:28.541Z,36.90
2022-09-23T13:16:56.062Z,37.20
2022-09-23T13:19:25.826Z,37.30
2022-09-23T13:22:09.272Z,37.30
2022-09-23T13:25:06.388Z,37.30
2022-09-23T13:27:35.002Z,37.60
2022-09-23T13:30:13.779Z,37.70
2022-09-23T13:33:09.851Z,37.70
2022-09-23T13:35:40.709Z,37.60
2022-09-23T13:38:12.026Z,38.10
2022-09-23T13:40:38.679Z,38.20
2022-09-23T13:43:22.561Z,38.20
2022-09-23T13:45:49.361Z,38.50
2022-09-23T13:48:16.178Z,38.40
2022-09-23T13:50:50.029Z,37.90
2022-09-23T13:53:26.655Z,37.70
2022-09-23T13:56:13.110Z,37.00
2022-09-23T13:58:40.040Z,36.30
2022-09-23T14:01:32.160Z,35.40
2022-09-23T14:03:59.199Z,34.50
2022-09-23T14:06:27.285Z,33.80
2022-09-23T14:08:54.095Z,33.30
2022-09-23T14:11:31.799Z,32.80
2022-09-23T14:13:58.372Z,32.30
2022-09-23T14:16:26.239Z,31.70
2022-09-23T14:18:56.389Z,31.20
2022-09-23T14:21:34.977Z,31.00
2022-09-23T14:24:36.461Z,30.80
2022-09-23T14:27:17.604Z,30.80
2022-09-23T14:29:45.187Z,30.70
2022-09-23T14:32:18.021Z,30.60
2022-09-23T14:34:51.610Z,30.60
2022-09-23T14:37:36.723Z,30.90
2022-09-23T14:40:13.454Z,31.10
2022-09-23T14:42:42.316Z,31.20
2022-09-23T14:45:14.588Z,31.50
2022-09-23T14:47:43.839Z,31.80
2022-09-23T14:50:40.332Z,32.10
2022-09-23T14:53:34.337Z,32.30
2022-09-23T14:56:06.839Z,32.20
2022-09-23T14:58:56.177Z,32.40
2022-09-23T15:01:26.376Z,32.90
2022-09-23T15:03:53.536Z,33.40
2022-09-23T15:06:20.710Z,33.80
2022-09-23T15:08:47.375Z,34.10
2022-09-23T15:11:14.030Z,34.30
2022-09-23T15:13:46.434Z,34.60
2022-09-23T15:16:14.272Z,35.50
2022-09-23T15:18:42.959Z,35.10
2022-09-23T15:21:14.810Z,35.40
2022-09-23T15:23:44.499Z,36.20
2022-09-23T15:26:14.563Z,35.80
2022-09-23T15:28:42.330Z,36.10
2022-09-23T15:31:19.634Z,36.20
2022-09-23T15:33:47.602Z,36.40
2022-09-23T15:36:23.496Z,36.60
2022-09-23T15:38:50.164Z,36.70
2022-09-23T15:41:19.518Z,36.90
2022-09-23T15:43:46.957Z,37.10
2022-09-23T15:46:20.865Z,37.20
2022-09-23T15:49:02.160Z,37.30
2022-09-23T15:51:28.917Z,37.40
2022-09-23T15:53:55.934Z,37.60
2022-09-23T15:56:23.145Z,37.80
2022-09-23T15:58:49.848Z,37.90
2022-09-23T16:01:28.181Z,38.00
2022-09-23T16:03:55.600Z,37.80
2022-09-23T16:06:22.378Z,37.80
2022-09-23T16:08:49.169Z,38.10
2022-09-23T16:11:20.255Z,38.30
2022-09-23T16:13:46.827Z,38.40
2022-09-23T16:16:13.671Z,38.40
2022-09-23T16:18:42.259Z,38.20
2022-09-23T16:21:11.870Z,38.50
2022-09-23T16:23:39.016Z,38.70
2022-09-23T16:26:06.654Z,38.70
2022-09-23T16:28:33.330Z,38.80
2022-09-23T16:31:00.091Z,38.80
2022-09-23T16:33:27.605Z,38.90
2022-09-23T16:35:54.183Z,39.00
2022-09-23T16:38:21.061Z,39.00
2022-09-23T16:40:47.681Z,39.00
2022-09-23T16:43:14.472Z,39.10
2022-09-23T16:45:41.355Z,39.10
2022-09-23T16:48:08.093Z,39.20
2022-09-23T16:50:34.645Z,39.30
2022-09-23T16:53:01.482Z,39.30
2022-09-23T16:55:28.117Z,39.60
2022-09-23T16:57:54.777Z,39.40
2022-09-23T17:00:40.116Z,39.40
2022-09-23T17:03:25.618Z,39.50
2022-09-23T17:05:52.621Z,39.50
2022-09-23T17:08:19.456Z,39.60
2022-09-23T17:10:46.261Z,39.60
2022-09-23T17:13:15.634Z,39.70
2022-09-23T17:15:42.297Z,39.70
2022-09-23T17:18:09.173Z,39.70
2022-09-23T17:20:35.858Z,39.80
2022-09-23T17:23:05.514Z,39.90
2022-09-23T17:25:33.909Z,39.90
2022-09-23T17:28:00.823Z,39.90
2022-09-23T17:30:27.606Z,39.90
2022-09-23T17:32:54.222Z,40.00
2022-09-23T17:35:20.838Z,40.00
2022-09-23T17:37:47.554Z,40.70
2022-09-23T17:40:14.326Z,40.10
2022-09-23T17:42:41.397Z,40.20
2022-09-23T17:45:12.392Z,40.20
2022-09-23T17:47:41.667Z,40.20
2022-09-23T17:50:08.807Z,40.20
2022-09-23T17:52:35.502Z,40.30
2022-09-23T17:55:02.281Z,40.30
2022-09-23T17:57:28.999Z,40.30
2022-09-23T17:59:56.041Z,40.30
2022-09-23T18:02:22.877Z,40.40
2022-09-23T18:04:49.722Z,40.40
2022-09-23T18:07:16.372Z,40.50
2022-09-23T18:09:43.192Z,40.50
2022-09-23T18:12:09.803Z,40.50
2022-09-23T18:14:36.457Z,40.50
2022-09-23T18:17:03.112Z,40.60
2022-09-23T18:19:29.698Z,40.60
2022-09-23T18:21:57.149Z,40.60
2022-09-23T18:24:32.741Z,40.60
2022-09-23T18:27:00.290Z,40.60
2022-09-23T18:29:27.180Z,40.70
2022-09-23T18:31:53.937Z,40.70
2022-09-23T18:34:20.718Z,40.70
2022-09-23T18:36:47.436Z,40.80
2022-09-23T18:39:14.035Z,40.90
2022-09-23T18:41:41.093Z,40.80
2022-09-23T18:44:09.390Z,40.90
2022-09-23T18:46:35.956Z,41.00
2022-09-23T18:49:21.238Z,40.90
2022-09-23T18:51:52.228Z,41.00
2022-09-23T18:54:21.243Z,41.00
2022-09-23T18:56:49.159Z,40.90
2022-09-23T18:59:17.623Z,40.90
2022-09-23T19:01:45.634Z,40.90
2022-09-23T19:04:13.679Z,41.00
2022-09-23T19:06:41.373Z,41.00
2022-09-23T19:09:08.113Z,41.00
2022-09-23T19:11:36.310Z,41.10
2022-09-23T19:14:04.968Z,41.10
2022-09-23T19:16:31.794Z,41.10
2022-09-23T19:19:02.040Z,41.10
2022-09-23T19:21:29.380Z,41.10
2022-09-23T19:23:57.757Z,41.20
2022-09-23T19:26:26.363Z,41.20
2022-09-23T19:28:54.247Z,41.20
2022-09-23T19:31:25.594Z,41.20
2022-09-23T19:33:59.662Z,41.30
2022-09-23T19:36:33.311Z,41.30
2022-09-23T19:39:02.738Z,41.30
2022-09-23T19:41:32.139Z,41.30
2022-09-23T19:44:02.300Z,41.30
2022-09-23T19:46:32.383Z,41.30
2022-09-23T19:49:00.107Z,41.30
2022-09-23T19:51:27.190Z,41.40
2022-09-23T19:53:53.890Z,41.50
2022-09-23T19:56:20.562Z,41.40
2022-09-23T19:58:48.917Z,41.50
2022-09-23T20:01:16.246Z,41.50
2022-09-23T20:03:46.854Z,41.50
2022-09-23T20:06:15.122Z,41.50
2022-09-23T20:08:41.799Z,41.50
2022-09-23T20:11:12.342Z,41.50
2022-09-23T20:13:39.551Z,41.60
2022-09-23T20:16:11.151Z,41.60
2022-09-23T20:18:41.517Z,41.60
2022-09-23T20:21:09.740Z,41.70
2022-09-23T20:23:36.315Z,41.70
2022-09-23T20:26:22.555Z,41.70
2022-09-23T20:28:49.190Z,41.70
2022-09-23T20:31:16.058Z,41.70
2022-09-23T20:33:42.891Z,41.70
2022-09-23T20:36:10.437Z,41.60
2022-09-23T20:38:37.652Z,41.70
2022-09-23T20:41:04.464Z,41.70
2022-09-23T20:43:34.662Z,41.70
2022-09-23T20:46:02.247Z,41.80
2022-09-23T20:48:29.250Z,42.40
2022-09-23T20:51:03.173Z,41.80
2022-09-23T20:53:32.113Z,41.80
2022-09-23T20:55:58.737Z,41.90
2022-09-23T20:58:36.394Z,42.00
2022-09-23T21:01:04.704Z,41.90
2022-09-23T21:03:34.785Z,42.00
2022-09-23T21:06:04.686Z,41.90
2022-09-23T21:08:31.781Z,41.90
2022-09-23T21:10:59.026Z,41.90
2022-09-23T21:13:25.611Z,42.00
2022-09-23T21:15:52.276Z,41.90
2022-09-23T21:18:22.370Z,42.00
2022-09-23T21:20:59.170Z,42.00
2022-09-23T21:23:30.182Z,42.00
2022-09-23T21:26:17.750Z,42.10
2022-09-23T21:28:46.098Z,42.10
2022-09-23T21:31:22.374Z,42.10
2022-09-23T21:33:52.938Z,42.10
2022-09-23T21:36:19.628Z,42.00
2022-09-23T21:38:46.194Z,42.20
2022-09-23T21:41:12.842Z,42.10
2022-09-23T21:43:40.377Z,42.10
2022-09-23T21:46:08.608Z,42.20
2022-09-23T21:48:36.547Z,42.20
2022-09-23T21:51:08.306Z,42.20
2022-09-23T21:53:36.697Z,42.20
2022-09-23T21:56:06.184Z,42.20
2022-09-23T21:58:33.534Z,42.20
2022-09-23T22:01:01.090Z,42.30
2022-09-23T22:03:28.339Z,42.30
2022-09-23T22:06:26.702Z,42.30
2022-09-23T22:08:59.673Z,42.00
2022-09-23T22:11:47.379Z,42.30
2022-09-23T22:14:14.487Z,42.30
2022-09-23T22:16:41.549Z,42.20
2022-09-23T22:19:09.881Z,42.20
2022-09-23T22:21:38.108Z,42.30
2022-09-23T22:24:05.929Z,42.30
2022-09-23T22:26:34.538Z,42.30
2022-09-23T22:29:19.571Z,42.30
2022-09-23T22:32:04.940Z,42.40
2022-09-23T22:34:49.429Z,42.40
2022-09-23T22:37:20.646Z,42.40
2022-09-23T22:39:47.220Z,42.40
2022-09-23T22:42:14.254Z,42.40
2022-09-23T22:44:40.877Z,42.50
2022-09-23T22:47:08.117Z,42.50
2022-09-23T22:49:35.165Z,42.40
2022-09-23T22:52:05.587Z,42.50
2022-09-23T22:54:34.136Z,42.50
2022-09-23T22:57:03.999Z,42.50
2022-09-23T22:59:30.552Z,42.50
2022-09-23T23:01:58.822Z,42.50
2022-09-23T23:04:25.450Z,42.60
2022-09-23T23:06:52.101Z,42.50
2022-09-23T23:09:18.945Z,42.60
2022-09-23T23:11:45.841Z,42.60
2022-09-23T23:14:13.119Z,42.60
2022-09-23T23:16:39.827Z,42.60
2022-09-23T23:19:09.569Z,42.60
2022-09-23T23:21:36.793Z,42.60
2022-09-23T23:24:04.362Z,42.70
2022-09-23T23:26:32.235Z,42.60
2022-09-23T23:28:58.975Z,42.70
2022-09-23T23:31:27.021Z,42.70
2022-09-23T23:33:53.823Z,42.70
2022-09-23T23:36:21.391Z,42.70
2022-09-23T23:38:48.660Z,42.60
2022-09-23T23:41:17.018Z,42.60
2022-09-23T23:43:48.867Z,42.70
2022-09-23T23:46:15.623Z,42.70
2022-09-23T23:48:47.233Z,42.70
2022-09-23T23:51:14.123Z,42.70
2022-09-23T23:53:40.952Z,42.70
2022-09-23T23:56:12.244Z,42.70
2022-09-23T23:58:39.197Z,42.70
